Time;durP1;ratioP1;P1;durP2;ratioP2;P2;SDS_P1;SDS_P2;PMS_P1;PMS_P2;Temp;Humidity;BMP_temperature;BMP_pressure;BME280_temperature;BME280_humidity;BME280_pressure;Samples;Min_cycle;Max_cycle;Signal;HPM_P1;HPM_P2
2021/06/03 00:02:03;;;;;;;10.70;6.35;;;15.50;99.90;;;;;;4956548;28;20034;-72
2021/06/03 00:04:29;;;;;;;7.05;6.35;;;15.50;99.90;;;;;;4973976;28;20031;-72
2021/06/03 00:06:54;;;;;;;6.70;6.00;;;15.40;99.90;;;;;;4972517;28;20089;-72
2021/06/03 00:09:20;;;;;;;7.60;5.50;;;15.40;99.90;;;;;;4973724;28;20509;-77
2021/06/03 00:11:46;;;;;;;6.97;6.05;;;15.30;99.90;;;;;;4973839;28;20031;-72
2021/06/03 00:14:12;;;;;;;7.85;6.28;;;15.30;99.90;;;;;;4955803;28;20031;-73
2021/06/03 00:16:38;;;;;;;6.78;6.00;;;15.30;99.90;;;;;;4973295;28;20557;-72
2021/06/03 00:19:07;;;;;;;8.32;6.45;;;15.30;99.90;;;;;;4973664;28;20054;-72
2021/06/03 00:21:33;;;;;;;7.50;6.28;;;15.20;99.90;;;;;;4973143;28;20027;-73
2021/06/03 00:24:00;;;;;;;6.88;6.18;;;15.10;99.90;;;;;;4973596;28;20023;-73
2021/06/03 00:26:26;;;;;;;8.52;6.03;;;15.10;99.90;;;;;;4956258;28;20101;-72
2021/06/03 00:28:52;;;;;;;7.10;6.47;;;15.00;99.90;;;;;;5051704;23;20045;-73
2021/06/03 00:31:18;;;;;;;8.13;6.28;;;15.00;99.90;;;;;;5011631;28;20063;-71
2021/06/03 00:33:44;;;;;;;6.43;5.82;;;14.90;99.90;;;;;;5012486;28;20076;-71
2021/06/03 00:36:12;;;;;;;6.93;6.32;;;14.90;99.90;;;;;;4995904;28;20022;-71
2021/06/03 00:38:38;;;;;;;8.20;6.47;;;14.80;99.90;;;;;;4992182;28;20038;-71
2021/06/03 00:41:05;;;;;;;8.00;6.70;;;14.80;99.90;;;;;;4992049;28;20034;-71
2021/06/03 00:43:31;;;;;;;8.65;7.20;;;14.90;99.90;;;;;;4992385;28;20030;-72
2021/06/03 00:45:58;;;;;;;8.98;6.68;;;14.80;99.90;;;;;;4992462;28;20374;-71
2021/06/03 00:48:24;;;;;;;7.20;6.50;;;14.80;99.90;;;;;;4992405;28;20030;-71
2021/06/03 00:50:54;;;;;;;9.68;6.75;;;14.80;99.90;;;;;;4990841;28;20137;-70
2021/06/03 00:53:20;;;;;;;8.45;6.88;;;14.80;99.90;;;;;;4992674;28;20392;-72
2021/06/03 00:55:49;;;;;;;10.25;7.00;;;14.80;99.90;;;;;;4991996;28;20054;-72
2021/06/03 00:58:16;;;;;;;10.98;7.13;;;14.80;99.90;;;;;;4974586;28;20026;-72
2021/06/03 01:00:42;;;;;;;7.45;6.70;;;14.80;99.90;;;;;;4991578;28;20393;-72
2021/06/03 01:03:09;;;;;;;7.00;6.30;;;14.80;99.90;;;;;;4992062;28;20049;-72
2021/06/03 01:06:06;;;;;;;8.10;6.53;;;14.80;99.90;;;;;;4991428;28;20034;-72
2021/06/03 01:08:56;;;;;;;6.65;6.05;;;14.80;99.90;;;;;;4974015;28;20100;-72
2021/06/03 01:11:39;;;;;;;6.95;5.78;;;14.80;99.90;;;;;;4991874;28;20030;-71
2021/06/03 01:14:27;;;;;;;6.50;5.85;;;14.80;99.90;;;;;;4992104;28;20050;-73
2021/06/03 01:16:57;;;;;;;9.23;6.80;;;14.80;99.90;;;;;;4991903;28;20034;-71
2021/06/03 01:19:37;;;;;;;8.60;6.75;;;14.80;99.90;;;;;;4991284;28;20753;-71
2021/06/03 01:22:36;;;;;;;10.15;7.40;;;14.80;99.90;;;;;;4991549;28;20030;-72
2021/06/03 01:25:06;;;;;;;7.70;6.85;;;14.90;99.90;;;;;;4972263;28;20034;-70
2021/06/03 01:27:33;;;;;;;7.85;7.13;;;14.90;99.90;;;;;;4990454;28;20477;-72
2021/06/03 01:30:12;;;;;;;6.65;6.05;;;14.90;99.90;;;;;;4991448;28;20042;-71
2021/06/03 01:32:44;;;;;;;9.93;7.03;;;14.80;99.90;;;;;;4997331;28;20026;-72
2021/06/03 01:35:13;;;;;;;7.43;6.35;;;14.90;99.90;;;;;;4991849;28;20050;-72
2021/06/03 01:37:41;;;;;;;6.63;6.00;;;15.00;99.90;;;;;;4991389;28;20512;-72
2021/06/03 01:40:08;;;;;;;6.95;6.25;;;14.90;99.90;;;;;;4990215;28;20031;-71
2021/06/03 01:42:35;;;;;;;6.70;6.10;;;14.90;99.90;;;;;;4991362;28;20527;-71
2021/06/03 01:45:02;;;;;;;6.35;5.80;;;15.00;99.90;;;;;;4991500;28;20026;-71
2021/06/03 01:47:28;;;;;;;13.68;6.43;;;15.00;99.90;;;;;;4991389;28;20061;-71
2021/06/03 01:49:54;;;;;;;7.22;6.43;;;15.00;99.90;;;;;;4975606;28;20054;-71
2021/06/03 01:52:20;;;;;;;7.30;6.60;;;15.10;99.90;;;;;;4978008;28;20056;-71
2021/06/03 01:54:46;;;;;;;7.53;6.32;;;15.10;99.90;;;;;;4995565;28;20035;-71
2021/06/03 01:57:12;;;;;;;8.82;6.50;;;15.20;99.90;;;;;;4995249;28;20558;-72
2021/06/03 01:59:38;;;;;;;7.22;6.40;;;15.20;99.90;;;;;;4995575;28;20023;-72
2021/06/03 02:02:05;;;;;;;7.93;6.78;;;15.20;99.90;;;;;;4996056;28;20029;-71
2021/06/03 02:04:30;;;;;;;9.98;6.38;;;15.20;99.90;;;;;;4996095;28;20038;-73
2021/06/03 02:06:56;;;;;;;6.97;6.28;;;15.20;99.90;;;;;;4995918;28;20023;-73
2021/06/03 02:09:22;;;;;;;8.13;6.07;;;15.30;99.90;;;;;;4994790;28;20072;-71
2021/06/03 02:11:48;;;;;;;8.65;6.03;;;15.30;99.90;;;;;;4994920;28;20036;-70
2021/06/03 02:14:20;;;;;;;7.25;6.55;;;15.30;99.90;;;;;;4995440;28;20030;-73
2021/06/03 02:16:54;;;;;;;6.80;5.75;;;15.40;99.90;;;;;;4995164;28;20038;-71
2021/06/03 02:19:52;;;;;;;7.45;5.78;;;15.40;99.90;;;;;;4976840;28;20035;-70
2021/06/03 02:22:21;;;;;;;7.35;6.30;;;15.30;99.90;;;;;;4978404;28;20341;-71
2021/06/03 02:24:48;;;;;;;7.97;6.13;;;15.30;99.90;;;;;;4994832;28;20042;-72
2021/06/03 02:27:16;;;;;;;9.43;5.75;;;15.30;99.90;;;;;;4994975;28;20056;-71
2021/06/03 02:29:42;;;;;;;7.32;5.45;;;15.40;99.90;;;;;;4993471;28;20562;-71
2021/06/03 02:32:08;;;;;;;6.57;5.78;;;15.40;99.90;;;;;;4995247;28;20040;-71
2021/06/03 02:34:33;;;;;;;8.30;6.30;;;15.50;99.90;;;;;;4995826;28;20488;-72
2021/06/03 02:36:59;;;;;;;8.10;6.35;;;15.50;99.90;;;;;;5012099;28;20057;-72
2021/06/03 02:39:25;;;;;;;6.57;5.97;;;15.50;99.90;;;;;;4994210;28;20468;-71
2021/06/03 02:41:51;;;;;;;8.18;6.15;;;15.40;99.90;;;;;;4994793;28;20053;-71
2021/06/03 02:44:17;;;;;;;9.55;6.45;;;15.40;99.90;;;;;;4994506;28;20050;-71
2021/06/03 02:46:43;;;;;;;8.57;6.20;;;15.40;99.90;;;;;;4994510;28;20421;-72
2021/06/03 02:49:09;;;;;;;6.43;5.88;;;15.40;99.90;;;;;;4994675;28;20057;-72
2021/06/03 02:51:34;;;;;;;7.40;6.65;;;15.40;99.90;;;;;;4993743;28;20030;-71
2021/06/03 02:54:00;;;;;;;11.55;6.10;;;15.40;99.90;;;;;;4994538;28;20464;-72
2021/06/03 02:56:26;;;;;;;6.72;5.70;;;15.40;99.90;;;;;;4976915;28;20026;-73
2021/06/03 02:58:51;;;;;;;6.35;5.80;;;15.40;99.90;;;;;;4993879;28;20082;-72
2021/06/03 03:01:17;;;;;;;8.35;5.90;;;15.40;99.90;;;;;;4993312;28;20514;-72
2021/06/03 03:03:43;;;;;;;8.57;5.68;;;15.40;99.90;;;;;;4993629;28;20037;-72
2021/06/03 03:06:08;;;;;;;7.80;6.05;;;15.30;99.90;;;;;;4976596;28;20030;-72
2021/06/03 03:08:34;;;;;;;7.35;6.25;;;15.30;99.90;;;;;;4994282;28;20030;-72
2021/06/03 03:11:01;;;;;;;12.98;6.50;;;15.40;99.90;;;;;;4993551;28;20030;-71
2021/06/03 03:13:27;;;;;;;6.38;5.78;;;15.40;99.90;;;;;;4994165;28;20034;-71
2021/06/03 03:15:53;;;;;;;8.85;6.45;;;15.40;99.90;;;;;;4993948;28;20029;-71
2021/06/03 03:18:19;;;;;;;8.40;5.97;;;15.40;99.90;;;;;;4994144;28;20022;-71
2021/06/03 03:20:45;;;;;;;8.07;5.90;;;15.40;99.90;;;;;;4993256;28;20045;-72
2021/06/03 03:23:11;;;;;;;7.32;6.53;;;15.40;99.90;;;;;;4993723;28;20499;-70
2021/06/03 03:25:38;;;;;;;8.40;6.10;;;15.40;99.90;;;;;;4993768;28;20032;-70
2021/06/03 03:28:05;;;;;;;12.00;5.93;;;15.30;99.90;;;;;;4993542;28;20057;-72
2021/06/03 03:30:32;;;;;;;7.18;6.07;;;15.30;99.90;;;;;;4993339;28;20022;-72
2021/06/03 03:32:58;;;;;;;7.18;5.97;;;15.30;99.90;;;;;;4994158;28;20034;-72
2021/06/03 03:35:24;;;;;;;7.40;6.28;;;15.30;99.90;;;;;;4993426;28;20026;-71
2021/06/03 03:37:51;;;;;;;7.45;6.18;;;15.30;99.90;;;;;;4992655;28;20038;-72
2021/06/03 03:40:20;;;;;;;7.00;6.13;;;15.20;99.90;;;;;;4992843;28;20030;-71
2021/06/03 03:42:45;;;;;;;7.63;6.05;;;15.20;99.90;;;;;;4993654;28;20101;-70
2021/06/03 03:45:14;;;;;;;6.22;5.72;;;15.30;99.90;;;;;;4993893;28;20102;-71
2021/06/03 03:47:40;;;;;;;7.18;6.05;;;15.20;99.90;;;;;;4975505;28;20030;-71
2021/06/03 03:50:09;;;;;;;10.85;6.40;;;15.20;99.90;;;;;;4992119;28;20030;-72
2021/06/03 03:52:35;;;;;;;7.65;6.57;;;15.20;99.90;;;;;;4992224;28;20831;-72
2021/06/03 03:55:01;;;;;;;7.15;6.32;;;15.20;99.90;;;;;;4992546;28;20042;-71
2021/06/03 03:57:28;;;;;;;7.75;6.35;;;15.30;99.90;;;;;;4993028;28;20033;-73
2021/06/03 03:59:53;;;;;;;6.93;6.20;;;15.30;99.90;;;;;;4992377;28;20153;-72
2021/06/03 04:02:19;;;;;;;7.18;5.93;;;15.30;99.90;;;;;;4993084;28;20443;-72
2021/06/03 04:04:45;;;;;;;6.70;5.93;;;15.30;99.90;;;;;;4992965;28;20370;-71
2021/06/03 04:07:11;;;;;;;6.75;6.00;;;15.40;99.90;;;;;;4992915;28;20037;-71
2021/06/03 04:09:36;;;;;;;7.00;6.25;;;15.50;99.90;;;;;;4974665;28;20489;-71
2021/06/03 04:12:02;;;;;;;7.50;6.22;;;15.50;99.90;;;;;;4992065;28;20029;-71
2021/06/03 04:14:28;;;;;;;6.40;5.78;;;15.50;99.90;;;;;;4975199;28;20395;-71
2021/06/03 04:16:53;;;;;;;6.82;5.97;;;15.60;99.90;;;;;;4992924;28;20031;-71
2021/06/03 04:19:19;;;;;;;6.43;5.88;;;15.60;99.90;;;;;;4992288;28;20062;-72
2021/06/03 04:21:45;;;;;;;6.90;6.28;;;15.70;99.90;;;;;;4992686;28;20097;-72
2021/06/03 04:24:11;;;;;;;6.53;5.85;;;15.70;99.90;;;;;;4992737;28;20097;-72
2021/06/03 04:26:37;;;;;;;6.78;5.90;;;15.70;99.90;;;;;;4992818;28;20037;-72
2021/06/03 04:29:03;;;;;;;6.60;5.90;;;15.80;99.90;;;;;;4992919;28;20045;-72
2021/06/03 04:31:29;;;;;;;6.93;5.80;;;15.80;99.90;;;;;;4992111;28;20041;-71
2021/06/03 04:33:55;;;;;;;5.65;5.25;;;15.90;99.90;;;;;;4992792;28;20134;-71
2021/06/03 04:36:20;;;;;;;6.28;5.47;;;16.00;99.90;;;;;;4992240;28;20120;-72
2021/06/03 04:38:46;;;;;;;6.40;5.60;;;15.90;99.90;;;;;;4992551;28;20034;-71
2021/06/03 04:41:12;;;;;;;5.95;5.45;;;15.90;99.90;;;;;;4992775;28;20469;-71
2021/06/03 04:43:37;;;;;;;6.07;5.20;;;16.00;99.90;;;;;;4995659;28;20053;-71
2021/06/03 04:46:04;;;;;;;7.70;5.65;;;16.00;99.90;;;;;;4995535;28;20046;-71
2021/06/03 04:48:29;;;;;;;6.20;5.70;;;16.10;99.90;;;;;;4977578;28;20519;-71
2021/06/03 04:50:55;;;;;;;5.18;4.68;;;16.10;99.90;;;;;;4993725;28;20022;-71
2021/06/03 04:53:21;;;;;;;6.00;5.50;;;16.20;99.90;;;;;;4994881;28;20487;-70
2021/06/03 04:55:47;;;;;;;6.72;5.32;;;16.30;99.90;;;;;;4992938;28;20074;-71
2021/06/03 04:58:13;;;;;;;5.88;5.15;;;16.30;99.90;;;;;;4992483;28;20099;-71
2021/06/03 05:00:41;;;;;;;6.93;5.68;;;16.40;99.90;;;;;;4991939;28;20453;-71
2021/06/03 05:03:08;;;;;;;5.90;5.38;;;16.20;99.90;;;;;;4975658;28;20050;-71
2021/06/03 05:05:34;;;;;;;8.98;5.72;;;16.20;99.90;;;;;;4995084;28;20094;-71
2021/06/03 05:08:00;;;;;;;7.10;5.38;;;16.20;99.90;;;;;;4995334;28;20038;-71
2021/06/03 05:10:28;;;;;;;6.78;5.68;;;16.20;99.90;;;;;;4994144;28;20028;-71
2021/06/03 05:12:54;;;;;;;6.68;5.45;;;16.30;99.90;;;;;;4993907;28;20053;-71
2021/06/03 05:15:20;;;;;;;6.28;5.28;;;16.30;99.90;;;;;;4993180;28;20026;-71
2021/06/03 05:17:47;;;;;;;5.20;4.80;;;16.40;99.90;;;;;;4992359;28;20102;-71
2021/06/03 05:20:15;;;;;;;5.60;4.93;;;16.50;99.90;;;;;;4991186;28;20053;-71
2021/06/03 05:22:41;;;;;;;5.82;5.32;;;16.40;99.90;;;;;;4991994;28;20564;-72
2021/06/03 05:25:10;;;;;;;8.32;4.95;;;16.50;99.90;;;;;;4992240;28;20101;-71
2021/06/03 05:27:37;;;;;;;5.57;5.00;;;16.60;99.90;;;;;;4992139;28;20018;-74
2021/06/03 05:30:07;;;;;;;6.45;4.88;;;16.70;99.90;;;;;;4974124;28;20126;-71
2021/06/03 05:32:33;;;;;;;5.43;4.95;;;16.80;99.90;;;;;;4992305;28;20026;-71
2021/06/03 05:34:59;;;;;;;5.82;4.80;;;16.70;99.90;;;;;;4991645;28;20034;-72
2021/06/03 05:37:25;;;;;;;6.38;5.78;;;16.80;99.90;;;;;;4974524;28;20153;-71
2021/06/03 05:39:50;;;;;;;5.32;4.85;;;16.80;99.90;;;;;;4991593;28;20030;-72
2021/06/03 05:42:18;;;;;;;6.53;5.10;;;17.00;99.90;;;;;;4991990;28;20488;-71
2021/06/03 05:44:44;;;;;;;5.88;4.95;;;17.10;99.90;;;;;;4992106;28;20118;-72
2021/06/03 05:47:09;;;;;;;6.80;5.00;;;17.20;99.90;;;;;;4992083;28;20022;-72
2021/06/03 05:49:36;;;;;;;5.50;5.00;;;17.30;99.90;;;;;;4987963;28;20034;-72
2021/06/03 05:52:02;;;;;;;6.07;5.07;;;17.40;99.90;;;;;;4991582;28;20030;-71
2021/06/03 05:54:29;;;;;;;5.57;5.05;;;17.30;99.90;;;;;;4991289;28;20033;-71
2021/06/03 05:56:55;;;;;;;5.97;5.22;;;17.40;99.90;;;;;;5007261;28;20026;-71
2021/06/03 05:59:21;;;;;;;10.68;5.38;;;17.50;99.90;;;;;;5011699;28;20095;-71
2021/06/03 06:01:47;;;;;;;5.68;5.18;;;17.50;99.90;;;;;;5011205;28;20468;-72
2021/06/03 06:07:05;;;;;;;8.27;5.38;;;17.60;99.90;;;;;;4988139;28;20069;-70
2021/06/03 06:09:31;;;;;;;6.47;5.28;;;17.60;99.90;;;;;;4992339;28;20057;-71
2021/06/03 06:11:56;;;;;;;5.18;4.63;;;17.70;99.90;;;;;;4992207;28;20022;-71
2021/06/03 06:14:22;;;;;;;5.38;4.88;;;18.00;99.90;;;;;;4991554;28;20484;-70
2021/06/03 06:16:48;;;;;;;5.45;5.05;;;18.20;99.90;;;;;;4991181;28;20034;-71
2021/06/03 06:19:13;;;;;;;5.82;4.85;;;18.50;99.90;;;;;;4991069;28;20038;-71
2021/06/03 06:21:39;;;;;;;4.93;4.50;;;18.70;99.90;;;;;;4989571;28;20034;-71
2021/06/03 06:24:05;;;;;;;5.57;4.65;;;18.70;99.90;;;;;;4991190;28;20035;-72
2021/06/03 06:26:33;;;;;;;5.30;4.85;;;18.80;99.90;;;;;;4993691;28;20488;-72
2021/06/03 06:28:59;;;;;;;5.50;4.97;;;18.80;99.90;;;;;;4993474;28;20096;-71
2021/06/03 06:31:24;;;;;;;6.90;5.20;;;19.00;99.90;;;;;;4991842;28;20029;-70
2021/06/03 06:33:50;;;;;;;5.72;4.75;;;19.50;99.90;;;;;;5010401;28;20059;-70
2021/06/03 06:36:16;;;;;;;6.07;4.70;;;19.70;99.90;;;;;;5013008;28;20030;-71
2021/06/03 06:38:43;;;;;;;4.25;3.92;;;19.90;99.90;;;;;;5013693;28;20472;-70
2021/06/03 06:41:10;;;;;;;4.38;4.00;;;20.10;99.90;;;;;;5013409;28;20076;-70
2021/06/03 06:43:37;;;;;;;4.70;4.30;;;19.90;99.90;;;;;;5007302;28;20033;-70
2021/06/03 06:46:05;;;;;;;7.22;3.95;;;19.90;99.90;;;;;;5011984;28;20026;-70
2021/06/03 06:48:31;;;;;;;4.18;3.78;;;20.00;99.90;;;;;;5013956;28;20048;-70
2021/06/03 06:50:56;;;;;;;6.90;3.63;;;20.10;99.90;;;;;;5013329;28;20033;-71
2021/06/03 06:53:22;;;;;;;6.22;4.35;;;20.20;99.90;;;;;;5013808;28;20029;-71
2021/06/03 06:55:48;;;;;;;3.88;3.58;;;20.40;99.90;;;;;;5013214;28;20037;-70
2021/06/03 06:58:15;;;;;;;4.50;3.28;;;20.30;99.90;;;;;;5014545;28;20596;-71
2021/06/03 07:00:42;;;;;;;5.88;3.60;;;20.20;99.90;;;;;;5012770;28;20428;-71
2021/06/03 07:03:10;;;;;;;6.10;3.55;;;20.30;99.90;;;;;;5013695;28;20022;-73
2021/06/03 07:05:41;;;;;;;3.95;3.58;;;20.50;99.90;;;;;;5013858;28;20076;-70
2021/06/03 07:08:07;;;;;;;5.57;3.50;;;20.40;99.90;;;;;;5016869;28;20029;-71
2021/06/03 07:10:33;;;;;;;4.20;3.50;;;20.00;99.90;;;;;;5002383;28;20018;-70
2021/06/03 07:12:59;;;;;;;5.45;3.42;;;20.20;99.90;;;;;;5013358;28;20026;-70
2021/06/03 07:15:25;;;;;;;4.03;3.63;;;21.00;99.90;;;;;;5014113;28;20077;-70
2021/06/03 07:17:53;;;;;;;3.95;3.10;;;21.10;99.90;;;;;;4996062;28;20479;-70
2021/06/03 07:20:19;;;;;;;3.63;3.20;;;21.40;99.90;;;;;;5012753;28;20114;-71
2021/06/03 07:22:51;;;;;;;7.80;3.28;;;21.60;99.90;;;;;;4994758;28;20019;-74
2021/06/03 07:25:20;;;;;;;4.05;3.20;;;21.50;99.90;;;;;;4993634;28;20029;-75
2021/06/03 07:27:47;;;;;;;3.40;3.10;;;21.50;99.90;;;;;;4976308;28;20082;-74
2021/06/03 07:30:16;;;;;;;3.40;3.10;;;21.60;99.90;;;;;;4993421;28;20088;-72
2021/06/03 07:32:42;;;;;;;6.95;2.97;;;22.00;99.90;;;;;;4993813;28;20045;-73
2021/06/03 07:35:09;;;;;;;3.42;2.80;;;22.10;99.90;;;;;;4993483;28;20109;-73
2021/06/03 07:37:36;;;;;;;2.92;2.60;;;22.00;99.90;;;;;;4993524;28;20085;-72
2021/06/03 07:40:04;;;;;;;5.15;3.10;;;22.30;99.90;;;;;;4975332;28;20037;-75
2021/06/03 07:42:30;;;;;;;6.10;2.80;;;22.00;99.90;;;;;;4980184;28;20026;-72
2021/06/03 07:44:55;;;;;;;2.95;2.63;;;22.20;99.90;;;;;;4995422;28;20054;-71
2021/06/03 07:47:22;;;;;;;4.30;2.55;;;22.60;99.90;;;;;;5011932;28;20113;-72
2021/06/03 07:49:47;;;;;;;2.88;2.60;;;22.90;99.90;;;;;;5011752;28;20034;-70
2021/06/03 07:52:13;;;;;;;2.63;2.42;;;22.90;99.90;;;;;;4998576;28;20370;-71
2021/06/03 07:54:39;;;;;;;2.60;2.40;;;22.90;99.90;;;;;;4992658;28;20022;-71
2021/06/03 07:57:05;;;;;;;3.97;2.50;;;22.20;99.90;;;;;;4992977;28;20388;-72
2021/06/03 07:59:31;;;;;;;2.22;2.03;;;22.10;99.90;;;;;;4991918;28;20030;-72
2021/06/03 08:01:56;;;;;;;6.13;2.63;;;22.20;99.90;;;;;;4993065;28;20018;-73
2021/06/03 08:04:22;;;;;;;2.90;2.65;;;22.40;99.90;;;;;;4993388;28;20022;-72
2021/06/03 08:06:48;;;;;;;3.08;2.63;;;21.90;99.90;;;;;;4993197;28;20070;-73
2021/06/03 08:09:14;;;;;;;5.18;2.50;;;21.90;99.90;;;;;;4992733;28;20034;-71
2021/06/03 08:11:43;;;;;;;2.22;2.13;;;22.10;99.90;;;;;;4992644;28;20027;-71
2021/06/03 08:14:08;;;;;;;6.07;2.72;;;22.20;99.90;;;;;;4993322;28;20026;-72
2021/06/03 08:16:34;;;;;;;2.60;2.45;;;22.20;99.90;;;;;;4993296;28;20031;-73
2021/06/03 08:19:00;;;;;;;2.70;2.50;;;22.50;99.90;;;;;;4993421;28;20057;-72
2021/06/03 08:21:25;;;;;;;2.20;2.00;;;23.00;99.90;;;;;;4991871;28;20018;-72
2021/06/03 08:23:51;;;;;;;2.88;2.20;;;23.30;99.90;;;;;;4991481;28;20034;-73
2021/06/03 08:26:17;;;;;;;3.35;2.17;;;23.40;99.90;;;;;;4992999;28;20564;-75
2021/06/03 08:28:43;;;;;;;6.63;2.50;;;23.40;99.90;;;;;;4992515;28;20388;-74
2021/06/03 08:31:09;;;;;;;4.82;2.40;;;23.30;99.90;;;;;;4992018;28;20026;-72
2021/06/03 08:33:35;;;;;;;4.55;1.83;;;23.20;99.90;;;;;;4978161;28;20469;-73
2021/06/03 08:36:01;;;;;;;3.75;2.00;;;23.50;99.90;;;;;;5011565;28;20552;-73
2021/06/03 08:38:27;;;;;;;2.55;2.25;;;23.60;99.90;;;;;;5011880;28;20109;-74
2021/06/03 08:40:58;;;;;;;1.98;1.70;;;22.80;99.90;;;;;;5011590;28;20026;-74
2021/06/03 08:43:29;;;;;;;2.22;2.05;;;22.70;99.90;;;;;;5011987;28;20015;-74
2021/06/03 08:45:57;;;;;;;2.35;1.90;;;22.50;99.90;;;;;;5011797;28;20380;-74
2021/06/03 08:48:23;;;;;;;3.58;1.70;;;22.90;99.90;;;;;;5010161;28;20022;-74
2021/06/03 08:50:52;;;;;;;1.98;1.80;;;23.80;99.90;;;;;;4990635;28;20025;-73
2021/06/03 08:53:19;;;;;;;2.50;1.45;;;24.30;99.90;;;;;;4992566;28;20503;-75
2021/06/03 08:58:31;;;;;;;1.70;1.60;;;24.70;99.90;;;;;;4994237;28;20085;-74
2021/06/03 09:00:59;;;;;;;2.65;1.05;;;25.00;99.90;;;;;;4990501;28;20025;-74
2021/06/03 09:03:27;;;;;;;1.70;1.42;;;25.50;99.20;;;;;;4992001;28;20644;-74
2021/06/03 09:05:53;;;;;;;2.00;1.50;;;26.60;98.80;;;;;;4991632;28;20034;-74
2021/06/03 09:08:19;;;;;;;2.75;1.42;;;26.80;96.90;;;;;;4992578;28;20419;-73
2021/06/03 09:10:49;;;;;;;1.60;1.50;;;27.40;95.70;;;;;;4992535;28;20102;-75
2021/06/03 09:13:19;;;;;;;5.32;1.50;;;28.10;95.50;;;;;;4993357;28;20026;-73
2021/06/03 09:15:54;;;;;;;3.35;1.60;;;29.20;93.80;;;;;;4992663;28;20027;-75
2021/06/03 09:18:32;;;;;;;2.00;1.50;;;28.60;92.00;;;;;;4991182;28;20026;-75
2021/06/03 09:21:20;;;;;;;1.83;1.40;;;27.90;92.20;;;;;;4974701;28;20030;-74
2021/06/03 09:24:09;;;;;;;1.95;1.45;;;27.40;95.80;;;;;;4992630;28;20446;-75
2021/06/03 09:26:50;;;;;;;2.33;1.48;;;28.70;92.10;;;;;;4992788;28;20022;-75
2021/06/03 09:29:23;;;;;;;1.65;1.15;;;28.90;91.20;;;;;;4991959;28;20566;-73
2021/06/03 09:31:50;;;;;;;2.58;1.25;;;28.50;91.30;;;;;;4992686;28;20050;-73
2021/06/03 09:34:20;;;;;;;1.85;1.30;;;28.10;90.40;;;;;;4992353;28;20026;-75
2021/06/03 09:36:54;;;;;;;4.88;1.50;;;28.10;90.60;;;;;;4991684;28;20041;-74
2021/06/03 09:39:24;;;;;;;3.03;2.15;;;28.20;90.50;;;;;;4992461;28;20081;-73
2021/06/03 09:42:02;;;;;;;8.32;1.73;;;28.50;90.80;;;;;;4992230;28;20173;-73
2021/06/03 09:44:31;;;;;;;3.00;1.10;;;30.00;88.10;;;;;;4980777;28;20018;-73
2021/06/03 09:47:06;;;;;;;1.63;1.23;;;31.40;82.90;;;;;;5011302;28;20033;-73
2021/06/03 09:49:38;;;;;;;1.50;1.33;;;31.50;78.90;;;;;;5011046;28;20040;-73
2021/06/03 09:52:09;;;;;;;2.08;1.20;;;31.40;80.50;;;;;;4999433;28;20036;-73
2021/06/03 09:54:36;;;;;;;1.10;1.10;;;31.00;78.10;;;;;;4973018;28;20052;-72
2021/06/03 09:57:08;;;;;;;4.43;1.70;;;29.90;80.00;;;;;;4991940;28;20018;-74
2021/06/03 09:59:44;;;;;;;1.50;1.30;;;30.30;82.00;;;;;;4974233;28;20023;-73
2021/06/03 10:02:15;;;;;;;4.32;1.45;;;29.30;82.20;;;;;;4975227;28;20486;-73
2021/06/03 10:04:43;;;;;;;2.47;1.63;;;28.30;83.20;;;;;;4977995;28;20038;-72
2021/06/03 10:07:16;;;;;;;1.67;1.33;;;27.30;84.40;;;;;;4991476;28;20030;-72
2021/06/03 10:09:42;;;;;;;5.20;1.42;;;26.90;87.20;;;;;;4992138;28;20027;-71
2021/06/03 10:12:10;;;;;;;1.70;1.55;;;26.50;89.50;;;;;;4996702;28;20563;-73
2021/06/03 10:14:37;;;;;;;1.85;1.75;;;26.50;90.70;;;;;;4996515;28;20037;-73
2021/06/03 10:17:22;;;;;;;1.50;1.40;;;26.20;91.10;;;;;;4996963;28;20034;-73
2021/06/03 10:19:51;;;;;;;1.60;1.50;;;26.10;90.60;;;;;;5015057;28;20536;-73
2021/06/03 10:22:20;;;;;;;2.50;1.60;;;26.20;90.10;;;;;;5001225;28;20018;-74
2021/06/03 10:24:47;;;;;;;3.42;1.80;;;26.60;90.90;;;;;;4995925;28;20101;-74
2021/06/03 10:27:13;;;;;;;2.15;1.80;;;27.00;90.30;;;;;;5000206;28;20022;-73
2021/06/03 10:29:39;;;;;;;6.63;1.98;;;27.90;88.90;;;;;;4999469;28;20056;-73
2021/06/03 10:32:05;;;;;;;1.98;1.50;;;28.40;86.50;;;;;;4996265;28;20101;-73
2021/06/03 10:34:33;;;;;;;4.47;1.52;;;28.90;89.10;;;;;;4993701;28;20034;-72
2021/06/03 10:36:59;;;;;;;1.83;1.60;;;29.10;85.90;;;;;;4994814;28;20400;-72
2021/06/03 10:39:25;;;;;;;2.17;1.40;;;29.70;83.30;;;;;;4994580;28;20026;-71
2021/06/03 10:41:52;;;;;;;1.73;1.35;;;29.60;81.50;;;;;;4995016;28;20030;-71
2021/06/03 10:44:18;;;;;;;3.13;1.30;;;29.50;81.00;;;;;;4999470;28;20022;-70
2021/06/03 10:46:44;;;;;;;4.53;1.60;;;29.50;81.20;;;;;;5014339;28;20030;-71
2021/06/03 10:49:12;;;;;;;2.85;1.30;;;29.50;81.30;;;;;;5014446;28;20071;-72
2021/06/03 10:51:41;;;;;;;1.83;1.73;;;29.60;81.40;;;;;;5004879;28;20105;-70
2021/06/03 10:54:07;;;;;;;4.68;1.50;;;29.20;78.60;;;;;;4993422;28;20030;-70
2021/06/03 10:56:33;;;;;;;1.40;1.30;;;28.50;81.20;;;;;;4994392;28;20177;-71
2021/06/03 10:59:01;;;;;;;2.40;1.35;;;28.30;83.10;;;;;;4994634;28;20093;-71
2021/06/03 11:01:27;;;;;;;2.30;1.60;;;28.70;82.60;;;;;;4976607;28;20026;-71
2021/06/03 11:04:02;;;;;;;4.30;1.63;;;29.20;82.00;;;;;;4994375;28;20449;-72
2021/06/03 11:06:31;;;;;;;1.63;1.52;;;29.70;81.40;;;;;;4976542;28;20053;-71
2021/06/03 11:08:57;;;;;;;2.17;1.50;;;30.20;79.30;;;;;;4994333;28;20034;-70
2021/06/03 11:11:27;;;;;;;1.60;1.50;;;30.20;78.70;;;;;;4994015;28;20026;-71
2021/06/03 11:13:53;;;;;;;3.97;1.40;;;30.30;75.80;;;;;;4993632;28;20109;-72
2021/06/03 11:16:19;;;;;;;3.13;1.30;;;30.20;77.80;;;;;;4993394;28;20432;-71
2021/06/03 11:18:44;;;;;;;1.52;1.42;;;30.10;76.90;;;;;;4993498;28;20039;-71
2021/06/03 11:21:38;;;;;;;1.55;1.10;;;30.00;76.00;;;;;;4990970;28;20504;-72
2021/06/03 11:24:36;;;;;;;3.58;1.50;;;29.50;74.20;;;;;;5013074;28;20029;-71
2021/06/03 11:27:16;;;;;;;4.18;1.67;;;28.90;76.30;;;;;;5013394;28;20380;-70
2021/06/03 11:29:47;;;;;;;3.15;1.60;;;29.20;77.90;;;;;;5012748;28;20195;-71
2021/06/03 11:32:13;;;;;;;;;;;29.20;77.00;;;;;;5013653;28;20033;-70
2021/06/03 11:34:41;;;;;;;5.22;1.48;;;29.30;76.00;;;;;;5013162;28;20061;-70
2021/06/03 11:37:26;;;;;;;2.83;1.55;;;29.30;75.00;;;;;;5013307;28;20428;-70
2021/06/03 11:40:00;;;;;;;2.30;1.38;;;29.50;74.60;;;;;;5012513;28;20113;-70
2021/06/03 11:42:36;;;;;;;2.25;1.30;;;29.40;75.60;;;;;;5013366;28;20030;-72
2021/06/03 11:45:12;;;;;;;1.92;1.30;;;29.70;77.80;;;;;;4999409;28;20560;-71
2021/06/03 11:47:38;;;;;;;3.17;1.38;;;29.50;77.70;;;;;;4992316;28;20088;-72
2021/06/03 11:50:16;;;;;;;2.95;1.52;;;29.10;78.00;;;;;;4993185;28;20102;-73
2021/06/03 11:52:59;;;;;;;3.15;1.42;;;28.50;79.40;;;;;;5003422;28;20038;-71
2021/06/03 11:55:39;;;;;;;2.30;1.48;;;28.10;80.70;;;;;;5013275;28;20044;-72
2021/06/03 11:58:23;;;;;;;4.22;1.55;;;27.70;82.30;;;;;;5008709;28;20058;-72
2021/06/03 12:00:59;;;;;;;2.90;1.80;;;27.40;82.90;;;;;;4993133;28;20149;-72
2021/06/03 12:03:40;;;;;;;1.77;1.67;;;27.00;84.70;;;;;;4976169;28;20034;-72
2021/06/03 12:06:35;;;;;;;4.70;1.80;;;26.80;85.40;;;;;;4977177;28;20022;-72
2021/06/03 12:09:15;;;;;;;1.75;1.60;;;26.70;85.70;;;;;;4994671;28;20477;-72
2021/06/03 12:11:42;;;;;;;2.88;2.22;;;26.60;85.10;;;;;;4994966;28;20204;-72
2021/06/03 12:14:15;;;;;;;2.90;1.38;;;26.30;86.30;;;;;;4994984;28;20113;-71
2021/06/03 12:16:42;;;;;;;2.30;1.52;;;26.80;86.50;;;;;;4994481;28;20037;-72
2021/06/03 12:19:10;;;;;;;2.10;1.60;;;27.90;86.20;;;;;;4994023;28;20093;-72
2021/06/03 12:21:37;;;;;;;4.25;1.63;;;28.60;80.70;;;;;;4975884;28;20022;-71
2021/06/03 12:24:03;;;;;;;2.42;1.45;;;29.10;79.40;;;;;;4994098;28;20025;-71
2021/06/03 12:26:29;;;;;;;3.13;1.80;;;29.50;80.40;;;;;;4981231;28;20025;-71
2021/06/03 12:28:55;;;;;;;3.97;1.60;;;30.00;79.00;;;;;;5012884;28;20034;-71
2021/06/03 12:31:25;;;;;;;2.88;1.40;;;30.10;77.50;;;;;;5012754;28;20032;-70
2021/06/03 12:33:51;;;;;;;4.70;1.58;;;30.30;78.50;;;;;;4994827;28;20033;-70
2021/06/03 12:36:18;;;;;;;3.25;1.42;;;30.40;79.90;;;;;;5019460;23;20037;-71
2021/06/03 12:38:52;;;;;;;2.65;1.60;;;29.70;77.80;;;;;;5032580;28;20403;-72
2021/06/03 12:41:28;;;;;;;3.22;1.63;;;28.70;80.90;;;;;;5032464;28;20026;-73
2021/06/03 12:44:02;;;;;;;2.35;1.90;;;28.00;85.00;;;;;;5032841;28;20028;-74
2021/06/03 12:46:35;;;;;;;1.70;1.52;;;27.80;86.50;;;;;;5037831;28;20032;-72
2021/06/03 12:49:07;;;;;;;4.25;1.55;;;27.50;83.50;;;;;;5034349;28;20479;-71
2021/06/03 12:51:34;;;;;;;1.55;1.27;;;27.60;87.10;;;;;;5027467;28;20101;-72
2021/06/03 12:54:00;;;;;;;4.47;1.60;;;27.80;86.30;;;;;;5012735;28;20447;-73
2021/06/03 12:56:27;;;;;;;1.58;1.42;;;28.00;84.40;;;;;;5011409;28;20356;-73
2021/06/03 12:58:54;;;;;;;1.27;1.15;;;28.50;82.60;;;;;;5013524;28;20025;-74
2021/06/03 13:01:20;;;;;;;5.45;1.20;;;29.40;82.00;;;;;;4997149;28;20479;-74